sensor_id;sensor_type;location;lat;lon;timestamp;P1;durP1;ratioP1;P2;durP2;ratioP2
4274;SDS011;2151;50.988;11.068;2023-03-01T00:01:59;156.87;;;18.30;;
4274;SDS011;2151;50.988;11.068;2023-03-01T00:04:26;155.60;;;18.83;;
4274;SDS011;2151;50.988;11.068;2023-03-01T00:06:53;151.50;;;16.33;;
4274;SDS011;2151;50.988;11.068;2023-03-01T00:09:20;158.90;;;19.17;;
4274;SDS011;2151;50.988;11.068;2023-03-01T00:11:46;162.00;;;18.43;;
4274;SDS011;2151;50.988;11.068;2023-03-01T00:14:13;155.70;;;18.50;;
4274;SDS011;2151;50.988;11.068;2023-03-01T00:16:40;151.97;;;17.57;;
4274;SDS011;2151;50.988;11.068;2023-03-01T00:19:08;154.47;;;18.03;;
4274;SDS011;2151;50.988;11.068;2023-03-01T00:21:35;151.17;;;18.17;;
4274;SDS011;2151;50.988;11.068;2023-03-01T00:24:02;152.77;;;17.50;;
4274;SDS011;2151;50.988;11.068;2023-03-01T00:26:29;158.87;;;18.00;;
4274;SDS011;2151;50.988;11.068;2023-03-01T00:28:56;158.53;;;18.90;;
4274;SDS011;2151;50.988;11.068;2023-03-01T00:31:24;151.87;;;17.20;;
4274;SDS011;2151;50.988;11.068;2023-03-01T00:33:54;152.40;;;18.83;;
4274;SDS011;2151;50.988;11.068;2023-03-01T00:36:25;155.47;;;18.37;;
4274;SDS011;2151;50.988;11.068;2023-03-01T00:38:51;156.20;;;18.90;;
4274;SDS011;2151;50.988;11.068;2023-03-01T00:41:19;154.40;;;18.47;;
4274;SDS011;2151;50.988;11.068;2023-03-01T00:43:46;154.57;;;18.87;;
4274;SDS011;2151;50.988;11.068;2023-03-01T00:46:13;154.93;;;19.10;;
4274;SDS011;2151;50.988;11.068;2023-03-01T00:48:40;156.87;;;19.47;;
4274;SDS011;2151;50.988;11.068;2023-03-01T00:53:33;148.77;;;17.53;;
4274;SDS011;2151;50.988;11.068;2023-03-01T00:56:00;157.57;;;19.30;;
4274;SDS011;2151;50.988;11.068;2023-03-01T00:58:26;157.73;;;18.80;;
4274;SDS011;2151;50.988;11.068;2023-03-01T01:00:53;154.17;;;19.03;;
4274;SDS011;2151;50.988;11.068;2023-03-01T01:03:19;163.93;;;19.00;;
4274;SDS011;2151;50.988;11.068;2023-03-01T01:05:46;159.03;;;19.93;;
4274;SDS011;2151;50.988;11.068;2023-03-01T01:08:12;160.97;;;20.87;;
4274;SDS011;2151;50.988;11.068;2023-03-01T01:10:38;155.10;;;19.67;;
4274;SDS011;2151;50.988;11.068;2023-03-01T01:13:05;159.30;;;20.73;;
4274;SDS011;2151;50.988;11.068;2023-03-01T01:15:34;160.67;;;20.40;;
4274;SDS011;2151;50.988;11.068;2023-03-01T01:18:00;155.43;;;19.40;;
4274;SDS011;2151;50.988;11.068;2023-03-01T01:20:27;155.20;;;20.10;;
4274;SDS011;2151;50.988;11.068;2023-03-01T01:22:53;157.67;;;19.47;;
4274;SDS011;2151;50.988;11.068;2023-03-01T01:25:21;159.20;;;19.23;;
4274;SDS011;2151;50.988;11.068;2023-03-01T01:27:47;158.83;;;20.10;;
4274;SDS011;2151;50.988;11.068;2023-03-01T01:30:14;156.67;;;18.53;;
4274;SDS011;2151;50.988;11.068;2023-03-01T01:32:40;155.77;;;18.57;;
4274;SDS011;2151;50.988;11.068;2023-03-01T01:35:07;159.73;;;18.27;;
4274;SDS011;2151;50.988;11.068;2023-03-01T01:37:33;157.40;;;18.70;;
4274;SDS011;2151;50.988;11.068;2023-03-01T01:40:00;160.73;;;20.07;;
4274;SDS011;2151;50.988;11.068;2023-03-01T01:42:27;154.20;;;19.23;;
4274;SDS011;2151;50.988;11.068;2023-03-01T01:47:38;154.33;;;19.40;;
4274;SDS011;2151;50.988;11.068;2023-03-01T01:50:08;156.77;;;19.73;;
4274;SDS011;2151;50.988;11.068;2023-03-01T01:52:35;165.00;;;18.63;;
4274;SDS011;2151;50.988;11.068;2023-03-01T01:57:35;157.63;;;17.63;;
4274;SDS011;2151;50.988;11.068;2023-03-01T02:00:04;156.70;;;18.67;;
4274;SDS011;2151;50.988;11.068;2023-03-01T02:02:31;160.27;;;17.70;;
4274;SDS011;2151;50.988;11.068;2023-03-01T02:07:47;154.70;;;18.00;;
4274;SDS011;2151;50.988;11.068;2023-03-01T02:10:15;155.90;;;18.80;;
4274;SDS011;2151;50.988;11.068;2023-03-01T02:12:41;152.60;;;18.40;;
4274;SDS011;2151;50.988;11.068;2023-03-01T02:15:08;155.07;;;18.60;;
4274;SDS011;2151;50.988;11.068;2023-03-01T02:17:34;158.00;;;19.23;;
4274;SDS011;2151;50.988;11.068;2023-03-01T02:22:47;156.60;;;19.63;;
4274;SDS011;2151;50.988;11.068;2023-03-01T02:28:45;155.77;;;19.67;;
4274;SDS011;2151;50.988;11.068;2023-03-01T02:30:40;156.93;;;18.40;;
4274;SDS011;2151;50.988;11.068;2023-03-01T02:33:27;153.67;;;18.10;;
4274;SDS011;2151;50.988;11.068;2023-03-01T02:35:54;157.37;;;19.10;;
4274;SDS011;2151;50.988;11.068;2023-03-01T02:38:21;152.87;;;17.90;;
4274;SDS011;2151;50.988;11.068;2023-03-01T02:40:49;158.57;;;18.70;;
4274;SDS011;2151;50.988;11.068;2023-03-01T02:43:15;154.80;;;18.47;;
4274;SDS011;2151;50.988;11.068;2023-03-01T02:45:51;154.07;;;17.67;;
4274;SDS011;2151;50.988;11.068;2023-03-01T02:48:19;153.67;;;17.50;;
4274;SDS011;2151;50.988;11.068;2023-03-01T02:51:05;154.67;;;18.87;;
4274;SDS011;2151;50.988;11.068;2023-03-01T02:53:52;157.67;;;19.60;;
4274;SDS011;2151;50.988;11.068;2023-03-01T02:56:22;151.57;;;17.90;;
4274;SDS011;2151;50.988;11.068;2023-03-01T02:58:48;152.77;;;17.77;;
4274;SDS011;2151;50.988;11.068;2023-03-01T03:01:18;154.80;;;18.90;;
4274;SDS011;2151;50.988;11.068;2023-03-01T03:03:45;155.83;;;17.33;;
4274;SDS011;2151;50.988;11.068;2023-03-01T03:06:11;154.20;;;18.90;;
4274;SDS011;2151;50.988;11.068;2023-03-01T03:08:37;151.97;;;17.70;;
4274;SDS011;2151;50.988;11.068;2023-03-01T03:11:04;152.87;;;18.50;;
4274;SDS011;2151;50.988;11.068;2023-03-01T03:13:30;153.20;;;18.20;;
4274;SDS011;2151;50.988;11.068;2023-03-01T03:15:58;154.87;;;16.90;;
4274;SDS011;2151;50.988;11.068;2023-03-01T03:18:24;153.90;;;18.03;;
4274;SDS011;2151;50.988;11.068;2023-03-01T03:20:54;151.87;;;17.77;;
4274;SDS011;2151;50.988;11.068;2023-03-01T03:23:21;154.10;;;17.90;;
4274;SDS011;2151;50.988;11.068;2023-03-01T03:25:48;152.90;;;17.73;;
4274;SDS011;2151;50.988;11.068;2023-03-01T03:28:15;151.93;;;17.43;;
4274;SDS011;2151;50.988;11.068;2023-03-01T03:30:42;154.57;;;18.77;;
4274;SDS011;2151;50.988;11.068;2023-03-01T03:33:09;153.47;;;18.80;;
4274;SDS011;2151;50.988;11.068;2023-03-01T03:35:40;154.93;;;18.07;;
4274;SDS011;2151;50.988;11.068;2023-03-01T03:38:08;155.50;;;17.17;;
4274;SDS011;2151;50.988;11.068;2023-03-01T03:40:42;151.17;;;16.70;;
4274;SDS011;2151;50.988;11.068;2023-03-01T03:43:10;159.27;;;17.50;;
4274;SDS011;2151;50.988;11.068;2023-03-01T03:45:36;152.17;;;17.00;;
4274;SDS011;2151;50.988;11.068;2023-03-01T03:48:04;150.07;;;17.20;;
4274;SDS011;2151;50.988;11.068;2023-03-01T03:50:31;158.17;;;17.60;;
4274;SDS011;2151;50.988;11.068;2023-03-01T03:53:00;158.10;;;18.13;;
4274;SDS011;2151;50.988;11.068;2023-03-01T03:55:26;152.70;;;17.60;;
4274;SDS011;2151;50.988;11.068;2023-03-01T03:57:57;152.90;;;17.07;;
4274;SDS011;2151;50.988;11.068;2023-03-01T04:00:23;154.37;;;17.20;;
4274;SDS011;2151;50.988;11.068;2023-03-01T04:02:50;151.70;;;17.57;;
4274;SDS011;2151;50.988;11.068;2023-03-01T04:05:18;153.70;;;17.10;;
4274;SDS011;2151;50.988;11.068;2023-03-01T04:07:45;158.07;;;19.20;;
4274;SDS011;2151;50.988;11.068;2023-03-01T04:10:13;152.27;;;17.20;;
4274;SDS011;2151;50.988;11.068;2023-03-01T04:12:39;154.53;;;17.93;;
4274;SDS011;2151;50.988;11.068;2023-03-01T04:15:06;150.03;;;17.30;;
4274;SDS011;2151;50.988;11.068;2023-03-01T04:17:43;157.20;;;17.33;;
4274;SDS011;2151;50.988;11.068;2023-03-01T04:20:10;159.17;;;18.17;;
4274;SDS011;2151;50.988;11.068;2023-03-01T04:22:37;151.90;;;17.10;;
4274;SDS011;2151;50.988;11.068;2023-03-01T04:25:04;149.83;;;17.33;;
4274;SDS011;2151;50.988;11.068;2023-03-01T04:27:35;151.57;;;17.70;;
4274;SDS011;2151;50.988;11.068;2023-03-01T04:30:03;151.00;;;17.10;;
4274;SDS011;2151;50.988;11.068;2023-03-01T04:32:29;152.17;;;17.53;;
4274;SDS011;2151;50.988;11.068;2023-03-01T04:34:56;153.10;;;18.00;;
4274;SDS011;2151;50.988;11.068;2023-03-01T04:37:22;152.50;;;17.00;;
4274;SDS011;2151;50.988;11.068;2023-03-01T04:39:50;150.03;;;16.10;;
4274;SDS011;2151;50.988;11.068;2023-03-01T04:42:16;152.10;;;16.70;;
4274;SDS011;2151;50.988;11.068;2023-03-01T04:44:43;152.90;;;17.70;;
4274;SDS011;2151;50.988;11.068;2023-03-01T04:47:10;158.43;;;18.90;;
4274;SDS011;2151;50.988;11.068;2023-03-01T04:49:37;153.93;;;17.80;;
4274;SDS011;2151;50.988;11.068;2023-03-01T04:52:04;164.10;;;19.63;;
4274;SDS011;2151;50.988;11.068;2023-03-01T04:54:31;152.70;;;17.73;;
4274;SDS011;2151;50.988;11.068;2023-03-01T04:56:58;151.37;;;17.10;;
4274;SDS011;2151;50.988;11.068;2023-03-01T04:59:25;154.13;;;17.60;;
4274;SDS011;2151;50.988;11.068;2023-03-01T05:01:51;154.80;;;17.97;;
4274;SDS011;2151;50.988;11.068;2023-03-01T05:04:18;158.10;;;20.20;;
4274;SDS011;2151;50.988;11.068;2023-03-01T05:06:44;155.07;;;18.77;;
4274;SDS011;2151;50.988;11.068;2023-03-01T05:09:11;155.27;;;17.97;;
4274;SDS011;2151;50.988;11.068;2023-03-01T05:11:37;159.27;;;18.37;;
4274;SDS011;2151;50.988;11.068;2023-03-01T05:14:04;159.83;;;19.27;;
4274;SDS011;2151;50.988;11.068;2023-03-01T05:16:32;158.70;;;19.03;;
4274;SDS011;2151;50.988;11.068;2023-03-01T05:19:02;154.90;;;17.97;;
4274;SDS011;2151;50.988;11.068;2023-03-01T05:21:38;158.07;;;18.20;;
4274;SDS011;2151;50.988;11.068;2023-03-01T05:24:24;154.80;;;18.40;;
4274;SDS011;2151;50.988;11.068;2023-03-01T05:26:51;154.33;;;18.27;;
4274;SDS011;2151;50.988;11.068;2023-03-01T05:29:18;159.17;;;18.70;;
4274;SDS011;2151;50.988;11.068;2023-03-01T05:31:54;153.47;;;18.20;;
4274;SDS011;2151;50.988;11.068;2023-03-01T05:34:26;154.73;;;17.87;;
4274;SDS011;2151;50.988;11.068;2023-03-01T05:36:53;151.47;;;17.23;;
4274;SDS011;2151;50.988;11.068;2023-03-01T05:39:23;155.70;;;18.23;;
4274;SDS011;2151;50.988;11.068;2023-03-01T05:41:53;155.40;;;18.00;;
4274;SDS011;2151;50.988;11.068;2023-03-01T05:44:19;157.00;;;17.50;;
4274;SDS011;2151;50.988;11.068;2023-03-01T05:46:46;151.57;;;17.40;;
4274;SDS011;2151;50.988;11.068;2023-03-01T05:49:13;153.90;;;17.43;;
4274;SDS011;2151;50.988;11.068;2023-03-01T05:51:40;155.43;;;18.50;;
4274;SDS011;2151;50.988;11.068;2023-03-01T05:54:07;155.87;;;18.03;;
4274;SDS011;2151;50.988;11.068;2023-03-01T05:56:34;160.60;;;19.23;;
4274;SDS011;2151;50.988;11.068;2023-03-01T05:59:01;158.07;;;18.57;;
4274;SDS011;2151;50.988;11.068;2023-03-01T06:01:27;159.00;;;17.90;;
4274;SDS011;2151;50.988;11.068;2023-03-01T06:03:54;155.70;;;18.80;;
4274;SDS011;2151;50.988;11.068;2023-03-01T06:06:20;161.87;;;19.67;;
4274;SDS011;2151;50.988;11.068;2023-03-01T06:08:47;158.10;;;18.20;;
4274;SDS011;2151;50.988;11.068;2023-03-01T06:11:13;162.10;;;18.50;;
4274;SDS011;2151;50.988;11.068;2023-03-01T06:13:41;158.77;;;18.20;;
4274;SDS011;2151;50.988;11.068;2023-03-01T06:16:07;158.10;;;18.47;;
4274;SDS011;2151;50.988;11.068;2023-03-01T06:18:34;157.57;;;20.17;;
4274;SDS011;2151;50.988;11.068;2023-03-01T06:21:01;157.07;;;19.17;;
4274;SDS011;2151;50.988;11.068;2023-03-01T06:23:28;156.07;;;18.67;;
4274;SDS011;2151;50.988;11.068;2023-03-01T06:25:54;157.90;;;18.20;;
4274;SDS011;2151;50.988;11.068;2023-03-01T06:28:21;153.20;;;17.43;;
4274;SDS011;2151;50.988;11.068;2023-03-01T06:30:47;158.40;;;18.90;;
4274;SDS011;2151;50.988;11.068;2023-03-01T06:33:14;157.97;;;18.20;;
4274;SDS011;2151;50.988;11.068;2023-03-01T06:35:40;155.07;;;18.20;;
4274;SDS011;2151;50.988;11.068;2023-03-01T06:38:08;154.60;;;18.20;;
4274;SDS011;2151;50.988;11.068;2023-03-01T06:40:34;155.90;;;17.20;;
4274;SDS011;2151;50.988;11.068;2023-03-01T06:43:01;154.30;;;18.53;;
4274;SDS011;2151;50.988;11.068;2023-03-01T06:45:28;152.80;;;17.47;;
4274;SDS011;2151;50.988;11.068;2023-03-01T06:48:00;156.23;;;18.57;;
4274;SDS011;2151;50.988;11.068;2023-03-01T06:50:27;155.23;;;18.20;;
4274;SDS011;2151;50.988;11.068;2023-03-01T06:52:57;155.37;;;19.40;;
4274;SDS011;2151;50.988;11.068;2023-03-01T06:55:24;154.07;;;17.67;;
4274;SDS011;2151;50.988;11.068;2023-03-01T06:57:54;158.10;;;18.43;;
4274;SDS011;2151;50.988;11.068;2023-03-01T07:00:22;155.70;;;19.23;;
4274;SDS011;2151;50.988;11.068;2023-03-01T07:02:48;158.47;;;20.03;;
4274;SDS011;2151;50.988;11.068;2023-03-01T07:05:17;162.13;;;21.30;;
4274;SDS011;2151;50.988;11.068;2023-03-01T07:07:43;163.10;;;20.40;;
4274;SDS011;2151;50.988;11.068;2023-03-01T07:10:10;156.47;;;19.50;;
4274;SDS011;2151;50.988;11.068;2023-03-01T07:12:37;154.27;;;18.93;;
4274;SDS011;2151;50.988;11.068;2023-03-01T07:15:03;160.57;;;20.17;;
4274;SDS011;2151;50.988;11.068;2023-03-01T07:17:30;163.20;;;20.73;;
4274;SDS011;2151;50.988;11.068;2023-03-01T07:19:57;162.60;;;20.03;;
4274;SDS011;2151;50.988;11.068;2023-03-01T07:22:23;159.57;;;21.43;;
4274;SDS011;2151;50.988;11.068;2023-03-01T07:24:49;165.37;;;21.10;;
4274;SDS011;2151;50.988;11.068;2023-03-01T07:27:16;160.47;;;22.23;;
4274;SDS011;2151;50.988;11.068;2023-03-01T07:29:42;165.70;;;22.60;;
4274;SDS011;2151;50.988;11.068;2023-03-01T07:32:09;161.57;;;22.67;;
4274;SDS011;2151;50.988;11.068;2023-03-01T07:34:35;163.80;;;21.10;;
4274;SDS011;2151;50.988;11.068;2023-03-01T07:37:02;160.63;;;21.47;;
4274;SDS011;2151;50.988;11.068;2023-03-01T07:39:28;167.27;;;22.57;;
4274;SDS011;2151;50.988;11.068;2023-03-01T07:41:55;168.57;;;22.13;;
4274;SDS011;2151;50.988;11.068;2023-03-01T07:44:21;163.87;;;22.17;;
4274;SDS011;2151;50.988;11.068;2023-03-01T07:46:47;160.87;;;22.13;;
4274;SDS011;2151;50.988;11.068;2023-03-01T07:49:14;164.87;;;22.00;;
4274;SDS011;2151;50.988;11.068;2023-03-01T07:51:40;173.70;;;23.60;;
4274;SDS011;2151;50.988;11.068;2023-03-01T07:54:09;166.57;;;22.63;;
4274;SDS011;2151;50.988;11.068;2023-03-01T07:56:35;159.77;;;22.53;;
4274;SDS011;2151;50.988;11.068;2023-03-01T07:59:01;161.37;;;22.70;;
4274;SDS011;2151;50.988;11.068;2023-03-01T08:01:28;158.50;;;21.70;;
4274;SDS011;2151;50.988;11.068;2023-03-01T08:03:54;161.07;;;21.47;;
4274;SDS011;2151;50.988;11.068;2023-03-01T08:06:21;158.43;;;21.30;;
4274;SDS011;2151;50.988;11.068;2023-03-01T08:08:47;154.10;;;20.77;;
4274;SDS011;2151;50.988;11.068;2023-03-01T08:11:14;163.53;;;22.77;;
4274;SDS011;2151;50.988;11.068;2023-03-01T08:13:41;155.70;;;19.40;;
4274;SDS011;2151;50.988;11.068;2023-03-01T08:16:09;159.07;;;20.60;;
4274;SDS011;2151;50.988;11.068;2023-03-01T08:18:36;155.93;;;20.40;;
4274;SDS011;2151;50.988;11.068;2023-03-01T08:21:03;159.40;;;21.20;;
4274;SDS011;2151;50.988;11.068;2023-03-01T08:23:30;152.57;;;19.60;;
4274;SDS011;2151;50.988;11.068;2023-03-01T08:26:30;158.10;;;19.40;;
4274;SDS011;2151;50.988;11.068;2023-03-01T08:28:49;154.43;;;18.43;;
4274;SDS011;2151;50.988;11.068;2023-03-01T08:31:20;153.00;;;18.70;;
4274;SDS011;2151;50.988;11.068;2023-03-01T08:33:47;155.77;;;18.50;;
4274;SDS011;2151;50.988;11.068;2023-03-01T08:36:17;153.93;;;19.67;;
4274;SDS011;2151;50.988;11.068;2023-03-01T08:38:44;159.93;;;19.60;;
4274;SDS011;2151;50.988;11.068;2023-03-01T08:41:12;157.00;;;17.80;;
4274;SDS011;2151;50.988;11.068;2023-03-01T08:43:38;154.20;;;19.27;;
4274;SDS011;2151;50.988;11.068;2023-03-01T08:46:05;153.90;;;18.60;;
4274;SDS011;2151;50.988;11.068;2023-03-01T08:48:32;149.20;;;17.17;;
4274;SDS011;2151;50.988;11.068;2023-03-01T08:53:34;152.40;;;18.80;;
4274;SDS011;2151;50.988;11.068;2023-03-01T08:56:01;154.03;;;18.37;;
4274;SDS011;2151;50.988;11.068;2023-03-01T08:58:29;153.10;;;17.93;;
4274;SDS011;2151;50.988;11.068;2023-03-01T09:00:55;148.10;;;17.90;;
4274;SDS011;2151;50.988;11.068;2023-03-01T09:03:25;150.10;;;18.10;;
4274;SDS011;2151;50.988;11.068;2023-03-01T09:05:52;150.20;;;18.20;;
4274;SDS011;2151;50.988;11.068;2023-03-01T09:08:19;153.07;;;18.00;;
4274;SDS011;2151;50.988;11.068;2023-03-01T09:10:45;152.90;;;19.10;;
4274;SDS011;2151;50.988;11.068;2023-03-01T09:13:12;153.77;;;19.00;;
4274;SDS011;2151;50.988;11.068;2023-03-01T09:15:38;153.50;;;18.67;;
4274;SDS011;2151;50.988;11.068;2023-03-01T09:18:05;146.43;;;16.90;;
4274;SDS011;2151;50.988;11.068;2023-03-01T09:20:32;166.87;;;18.90;;
4274;SDS011;2151;50.988;11.068;2023-03-01T09:22:59;148.57;;;16.87;;
4274;SDS011;2151;50.988;11.068;2023-03-01T09:25:25;147.20;;;17.67;;
4274;SDS011;2151;50.988;11.068;2023-03-01T09:27:52;147.47;;;16.50;;
4274;SDS011;2151;50.988;11.068;2023-03-01T09:30:19;147.27;;;17.17;;
4274;SDS011;2151;50.988;11.068;2023-03-01T09:32:45;150.80;;;17.50;;
4274;SDS011;2151;50.988;11.068;2023-03-01T09:35:12;151.50;;;16.80;;
4274;SDS011;2151;50.988;11.068;2023-03-01T09:37:39;147.27;;;16.93;;
4274;SDS011;2151;50.988;11.068;2023-03-01T09:40:11;146.50;;;16.47;;
4274;SDS011;2151;50.988;11.068;2023-03-01T09:42:50;146.27;;;15.80;;
4274;SDS011;2151;50.988;11.068;2023-03-01T09:45:23;146.07;;;17.30;;
4274;SDS011;2151;50.988;11.068;2023-03-01T09:47:51;143.97;;;15.33;;
4274;SDS011;2151;50.988;11.068;2023-03-01T09:50:19;148.67;;;17.10;;
4274;SDS011;2151;50.988;11.068;2023-03-01T09:52:47;146.07;;;16.77;;
4274;SDS011;2151;50.988;11.068;2023-03-01T09:55:33;147.17;;;16.07;;
4274;SDS011;2151;50.988;11.068;2023-03-01T10:00:47;145.30;;;15.83;;
4274;SDS011;2151;50.988;11.068;2023-03-01T10:05:53;146.20;;;15.87;;
4274;SDS011;2151;50.988;11.068;2023-03-01T10:08:25;149.27;;;15.80;;
4274;SDS011;2151;50.988;11.068;2023-03-01T10:10:52;144.00;;;15.37;;
4274;SDS011;2151;50.988;11.068;2023-03-01T10:13:21;141.17;;;14.33;;
4274;SDS011;2151;50.988;11.068;2023-03-01T10:16:11;148.10;;;17.00;;
4274;SDS011;2151;50.988;11.068;2023-03-01T10:18:35;146.13;;;15.90;;
4274;SDS011;2151;50.988;11.068;2023-03-01T10:21:14;150.57;;;15.37;;
4274;SDS011;2151;50.988;11.068;2023-03-01T10:23:42;145.77;;;15.30;;
4274;SDS011;2151;50.988;11.068;2023-03-01T10:26:19;143.60;;;15.60;;
4274;SDS011;2151;50.988;11.068;2023-03-01T10:31:51;140.70;;;13.00;;
4274;SDS011;2151;50.988;11.068;2023-03-01T10:34:21;147.10;;;14.40;;
4274;SDS011;2151;50.988;11.068;2023-03-01T13:02:50;140.93;;;14.75;;
4274;SDS011;2151;50.988;11.068;2023-03-01T13:10:34;135.87;;;13.37;;
4274;SDS011;2151;50.988;11.068;2023-03-01T13:13:26;143.07;;;15.50;;
4274;SDS011;2151;50.988;11.068;2023-03-01T13:15:52;139.10;;;14.70;;
4274;SDS011;2151;50.988;11.068;2023-03-01T13:20:49;139.63;;;14.73;;
4274;SDS011;2151;50.988;11.068;2023-03-01T13:26:08;144.17;;;14.83;;
4274;SDS011;2151;50.988;11.068;2023-03-01T13:31:54;160.53;;;24.97;;
4274;SDS011;2151;50.988;11.068;2023-03-01T13:33:57;145.97;;;15.30;;
4274;SDS011;2151;50.988;11.068;2023-03-01T13:44:12;141.77;;;16.73;;
4274;SDS011;2151;50.988;11.068;2023-03-01T13:46:39;141.40;;;14.07;;
4274;SDS011;2151;50.988;11.068;2023-03-01T13:49:09;143.87;;;15.77;;
4274;SDS011;2151;50.988;11.068;2023-03-01T13:51:39;139.23;;;13.67;;
4274;SDS011;2151;50.988;11.068;2023-03-01T13:54:09;146.40;;;15.70;;
4274;SDS011;2151;50.988;11.068;2023-03-01T13:56:37;148.40;;;16.40;;
4274;SDS011;2151;50.988;11.068;2023-03-01T13:59:05;145.23;;;16.47;;
4274;SDS011;2151;50.988;11.068;2023-03-01T14:01:39;137.70;;;14.03;;
4274;SDS011;2151;50.988;11.068;2023-03-01T14:04:19;144.93;;;17.00;;
4274;SDS011;2151;50.988;11.068;2023-03-01T14:07:10;146.17;;;15.17;;
4274;SDS011;2151;50.988;11.068;2023-03-01T14:09:43;142.57;;;15.37;;
4274;SDS011;2151;50.988;11.068;2023-03-01T14:14:52;139.60;;;15.83;;
4274;SDS011;2151;50.988;11.068;2023-03-01T14:17:27;143.00;;;15.93;;
4274;SDS011;2151;50.988;11.068;2023-03-01T14:20:00;139.70;;;13.67;;
4274;SDS011;2151;50.988;11.068;2023-03-01T14:22:32;145.90;;;15.50;;
4274;SDS011;2151;50.988;11.068;2023-03-01T14:27:38;144.73;;;15.60;;
4274;SDS011;2151;50.988;11.068;2023-03-01T14:30:12;146.00;;;15.80;;
4274;SDS011;2151;50.988;11.068;2023-03-01T14:32:41;143.90;;;14.23;;
4274;SDS011;2151;50.988;11.068;2023-03-01T14:37:57;139.50;;;14.20;;
4274;SDS011;2151;50.988;11.068;2023-03-01T14:40:28;142.47;;;16.03;;
4274;SDS011;2151;50.988;11.068;2023-03-01T14:42:58;142.23;;;17.17;;
4274;SDS011;2151;50.988;11.068;2023-03-01T14:45:27;145.07;;;16.73;;
4274;SDS011;2151;50.988;11.068;2023-03-01T14:47:55;141.17;;;16.07;;
4274;SDS011;2151;50.988;11.068;2023-03-01T14:50:26;141.23;;;15.27;;
4274;SDS011;2151;50.988;11.068;2023-03-01T14:52:59;140.33;;;15.00;;
4274;SDS011;2151;50.988;11.068;2023-03-01T14:55:32;145.80;;;16.20;;
4274;SDS011;2151;50.988;11.068;2023-03-01T14:58:05;142.20;;;14.50;;
4274;SDS011;2151;50.988;11.068;2023-03-01T15:00:35;143.30;;;15.43;;
4274;SDS011;2151;50.988;11.068;2023-03-01T15:03:10;145.80;;;16.27;;
4274;SDS011;2151;50.988;11.068;2023-03-01T15:05:40;140.90;;;13.60;;
4274;SDS011;2151;50.988;11.068;2023-03-01T15:08:11;142.83;;;15.30;;
4274;SDS011;2151;50.988;11.068;2023-03-01T15:10:55;140.07;;;14.30;;
4274;SDS011;2151;50.988;11.068;2023-03-01T15:13:25;139.93;;;14.50;;
4274;SDS011;2151;50.988;11.068;2023-03-01T15:16:05;140.03;;;14.17;;
4274;SDS011;2151;50.988;11.068;2023-03-01T15:18:33;143.00;;;14.73;;
4274;SDS011;2151;50.988;11.068;2023-03-01T15:21:07;140.87;;;14.60;;
4274;SDS011;2151;50.988;11.068;2023-03-01T15:23:54;143.47;;;15.33;;
4274;SDS011;2151;50.988;11.068;2023-03-01T15:26:31;139.87;;;15.17;;
4274;SDS011;2151;50.988;11.068;2023-03-01T15:29:10;140.87;;;15.00;;
4274;SDS011;2151;50.988;11.068;2023-03-01T15:31:53;150.20;;;14.30;;
4274;SDS011;2151;50.988;11.068;2023-03-01T15:34:30;142.43;;;15.30;;
4274;SDS011;2151;50.988;11.068;2023-03-01T15:36:59;141.13;;;15.00;;
4274;SDS011;2151;50.988;11.068;2023-03-01T15:39:34;143.40;;;15.67;;
4274;SDS011;2151;50.988;11.068;2023-03-01T15:42:07;144.20;;;14.20;;
4274;SDS011;2151;50.988;11.068;2023-03-01T15:44:38;153.03;;;14.83;;
4274;SDS011;2151;50.988;11.068;2023-03-01T15:49:56;140.27;;;13.50;;
4274;SDS011;2151;50.988;11.068;2023-03-01T15:52:39;140.37;;;13.90;;
4274;SDS011;2151;50.988;11.068;2023-03-01T15:55:17;138.27;;;12.10;;
4274;SDS011;2151;50.988;11.068;2023-03-01T15:57:45;140.17;;;14.00;;
4274;SDS011;2151;50.988;11.068;2023-03-01T16:00:12;139.20;;;13.63;;
4274;SDS011;2151;50.988;11.068;2023-03-01T16:02:40;137.33;;;13.10;;
4274;SDS011;2151;50.988;11.068;2023-03-01T16:05:27;141.93;;;14.57;;
4274;SDS011;2151;50.988;11.068;2023-03-01T16:07:55;137.27;;;13.37;;
4274;SDS011;2151;50.988;11.068;2023-03-01T16:10:23;138.10;;;13.30;;
4274;SDS011;2151;50.988;11.068;2023-03-01T16:12:50;144.47;;;14.17;;
4274;SDS011;2151;50.988;11.068;2023-03-01T16:15:23;140.87;;;12.87;;
4274;SDS011;2151;50.988;11.068;2023-03-01T16:17:55;142.17;;;14.80;;
4274;SDS011;2151;50.988;11.068;2023-03-01T16:20:24;143.30;;;15.20;;
4274;SDS011;2151;50.988;11.068;2023-03-01T16:22:57;139.17;;;13.63;;
4274;SDS011;2151;50.988;11.068;2023-03-01T16:25:32;141.43;;;14.90;;
4274;SDS011;2151;50.988;11.068;2023-03-01T16:27:59;141.47;;;15.10;;
4274;SDS011;2151;50.988;11.068;2023-03-01T16:30:31;141.10;;;14.87;;
4274;SDS011;2151;50.988;11.068;2023-03-01T16:32:57;141.40;;;14.60;;
4274;SDS011;2151;50.988;11.068;2023-03-01T16:35:24;147.17;;;14.90;;
4274;SDS011;2151;50.988;11.068;2023-03-01T16:37:51;138.30;;;14.67;;
4274;SDS011;2151;50.988;11.068;2023-03-01T16:40:24;141.17;;;15.07;;
4274;SDS011;2151;50.988;11.068;2023-03-01T16:42:53;152.70;;;18.20;;
4274;SDS011;2151;50.988;11.068;2023-03-01T16:45:27;162.87;;;20.43;;
4274;SDS011;2151;50.988;11.068;2023-03-01T16:47:55;147.73;;;17.60;;
4274;SDS011;2151;50.988;11.068;2023-03-01T16:50:22;152.10;;;18.00;;
4274;SDS011;2151;50.988;11.068;2023-03-01T16:52:48;141.30;;;14.30;;
4274;SDS011;2151;50.988;11.068;2023-03-01T16:55:15;141.13;;;15.10;;
4274;SDS011;2151;50.988;11.068;2023-03-01T16:57:42;145.27;;;14.80;;
4274;SDS011;2151;50.988;11.068;2023-03-01T17:00:09;144.53;;;14.10;;
4274;SDS011;2151;50.988;11.068;2023-03-01T17:02:37;139.10;;;13.73;;
4274;SDS011;2151;50.988;11.068;2023-03-01T17:05:04;140.17;;;14.03;;
4274;SDS011;2151;50.988;11.068;2023-03-01T17:07:32;141.97;;;14.40;;
4274;SDS011;2151;50.988;11.068;2023-03-01T17:10:03;159.00;;;14.83;;
4274;SDS011;2151;50.988;11.068;2023-03-01T17:12:30;145.97;;;15.77;;
4274;SDS011;2151;50.988;11.068;2023-03-01T17:14:58;142.20;;;14.53;;
4274;SDS011;2151;50.988;11.068;2023-03-01T17:17:24;141.97;;;13.60;;
4274;SDS011;2151;50.988;11.068;2023-03-01T17:19:51;141.07;;;13.70;;
4274;SDS011;2151;50.988;11.068;2023-03-01T17:22:19;138.10;;;13.80;;
4274;SDS011;2151;50.988;11.068;2023-03-01T17:24:45;142.70;;;13.93;;
4274;SDS011;2151;50.988;11.068;2023-03-01T17:27:12;141.87;;;14.77;;
4274;SDS011;2151;50.988;11.068;2023-03-01T17:29:39;140.80;;;13.57;;
4274;SDS011;2151;50.988;11.068;2023-03-01T17:32:06;142.47;;;15.67;;
4274;SDS011;2151;50.988;11.068;2023-03-01T17:34:33;144.40;;;13.80;;
4274;SDS011;2151;50.988;11.068;2023-03-01T17:36:59;150.63;;;16.20;;
4274;SDS011;2151;50.988;11.068;2023-03-01T17:39:26;142.70;;;14.93;;
4274;SDS011;2151;50.988;11.068;2023-03-01T17:41:57;148.67;;;16.20;;
4274;SDS011;2151;50.988;11.068;2023-03-01T17:44:24;148.17;;;18.00;;
4274;SDS011;2151;50.988;11.068;2023-03-01T17:46:51;150.73;;;18.10;;
4274;SDS011;2151;50.988;11.068;2023-03-01T17:49:17;149.00;;;16.23;;
4274;SDS011;2151;50.988;11.068;2023-03-01T17:51:44;145.77;;;15.20;;
4274;SDS011;2151;50.988;11.068;2023-03-01T17:54:10;148.00;;;17.20;;
4274;SDS011;2151;50.988;11.068;2023-03-01T17:56:37;146.10;;;16.33;;